createdAt,value
2018-03-02T00:02:00.806Z,-1.23
2018-03-02T00:05:04.779Z,-1.22
2018-03-02T00:08:07.945Z,-1.24
2018-03-02T00:11:11.105Z,-1.36
2018-03-02T00:14:14.329Z,-1.44
2018-03-02T00:17:17.624Z,-1.48
2018-03-02T00:20:20.790Z,-1.53
2018-03-02T00:23:23.985Z,-1.58
2018-03-02T00:26:27.144Z,-1.59
2018-03-02T00:29:30.413Z,-1.61
2018-03-02T00:32:33.609Z,-1.59
2018-03-02T00:35:36.866Z,-1.57
2018-03-02T00:38:40.048Z,-1.69
2018-03-02T00:41:43.263Z,-1.75
2018-03-02T00:44:46.458Z,-1.74
2018-03-02T00:47:49.661Z,-1.75
2018-03-02T00:50:52.865Z,-1.72
2018-03-02T00:53:56.045Z,-1.78
2018-03-02T00:56:59.609Z,-1.78
2018-03-02T01:00:02.777Z,-1.80
2018-03-02T01:03:05.922Z,-1.90
2018-03-02T01:06:09.109Z,-1.93
2018-03-02T01:09:12.257Z,-1.94
2018-03-02T01:12:15.453Z,-1.99
2018-03-02T01:15:18.670Z,-2.04
2018-03-02T01:18:21.829Z,-2.07
2018-03-02T01:21:25.031Z,-2.10
2018-03-02T01:24:28.199Z,-2.04
2018-03-02T01:27:31.336Z,-2.16
2018-03-02T01:30:34.605Z,-2.17
2018-03-02T01:33:37.808Z,-2.22
2018-03-02T01:36:41.008Z,-2.18
2018-03-02T01:39:44.181Z,-2.20
2018-03-02T01:42:47.354Z,-2.21
2018-03-02T01:45:50.858Z,-2.22
2018-03-02T01:52:32.091Z,-2.36
2018-03-02T01:55:36.230Z,-2.37
2018-03-02T01:58:39.396Z,-2.42
2018-03-02T02:01:42.614Z,-2.46
2018-03-02T02:04:45.806Z,-2.48
2018-03-02T02:07:48.993Z,-2.55
2018-03-02T02:10:52.264Z,-2.49
2018-03-02T02:13:55.504Z,-2.48
2018-03-02T02:20:36.745Z,-2.59
2018-03-02T02:23:39.909Z,-2.64
2018-03-02T02:26:43.094Z,-2.63
2018-03-02T02:29:46.268Z,-2.70
2018-03-02T02:32:49.490Z,-2.80
2018-03-02T02:35:52.698Z,-2.82
2018-03-02T02:38:55.862Z,-2.82
2018-03-02T02:41:59.098Z,-2.96
2018-03-02T02:45:02.361Z,-2.98
2018-03-02T02:48:06.707Z,-2.97
2018-03-02T02:51:09.922Z,-2.97
2018-03-02T02:54:13.111Z,-3.05
2018-03-02T02:57:16.295Z,-3.03
2018-03-02T03:00:19.469Z,-3.08
2018-03-02T03:03:22.637Z,-3.06
2018-03-02T03:06:25.861Z,-3.08
2018-03-02T03:09:29.162Z,-3.19
2018-03-02T03:12:32.311Z,-3.24
2018-03-02T03:15:36.534Z,-3.26
2018-03-02T03:18:39.822Z,-3.26
2018-03-02T03:21:43.091Z,-3.27
2018-03-02T03:24:46.266Z,-3.27
2018-03-02T03:27:49.570Z,-3.31
2018-03-02T03:30:52.781Z,-3.25
2018-03-02T03:33:55.979Z,-3.40
2018-03-02T03:36:59.325Z,-3.38
2018-03-02T03:40:02.611Z,-3.29
2018-03-02T03:43:06.964Z,-3.32
2018-03-02T03:46:10.114Z,-3.45
2018-03-02T03:49:13.305Z,-3.48
2018-03-02T03:52:16.910Z,-3.45
2018-03-02T03:55:20.074Z,-3.41
2018-03-02T03:58:23.289Z,-3.41
2018-03-02T04:01:26.454Z,-3.49
2018-03-02T04:04:29.698Z,-3.44
2018-03-02T04:07:32.946Z,-3.50
2018-03-02T04:10:36.414Z,-3.52
2018-03-02T04:13:39.736Z,-3.51
2018-03-02T04:16:43.059Z,-3.58
2018-03-02T04:19:46.230Z,-3.59
2018-03-02T04:22:49.406Z,-3.61
2018-03-02T04:25:52.601Z,-3.55
2018-03-02T04:28:55.772Z,-3.55
2018-03-02T04:31:58.993Z,-3.58
2018-03-02T04:35:02.278Z,-3.61
2018-03-02T04:38:06.500Z,-3.73
2018-03-02T04:41:09.683Z,-3.73
2018-03-02T04:47:51.115Z,-3.67
2018-03-02T04:50:54.293Z,-3.72
2018-03-02T04:53:57.478Z,-3.82
2018-03-02T04:57:00.689Z,-3.79
2018-03-02T05:00:05.353Z,-3.79
2018-03-02T05:03:08.622Z,-3.83
2018-03-02T05:06:11.782Z,-3.81
2018-03-02T05:09:14.947Z,-3.79
2018-03-02T05:12:18.086Z,-3.83
2018-03-02T05:15:21.283Z,-3.80
2018-03-02T05:18:24.489Z,-3.77
2018-03-02T05:21:27.647Z,-3.83
2018-03-02T05:24:30.784Z,-3.82
2018-03-02T05:27:35.058Z,-3.81
2018-03-02T05:30:38.332Z,-3.83
2018-03-02T05:33:41.523Z,-3.77
2018-03-02T05:36:45.045Z,-3.75
2018-03-02T05:39:48.343Z,-3.73
2018-03-02T05:42:51.527Z,-3.81
2018-03-02T05:45:54.734Z,-3.87
2018-03-02T05:48:57.885Z,-3.85
2018-03-02T05:52:01.126Z,-3.90
2018-03-02T05:55:04.820Z,-3.87
2018-03-02T06:01:38.573Z,-3.81
2018-03-02T06:04:41.784Z,-3.82
2018-03-02T06:07:44.962Z,-3.85
2018-03-02T06:10:48.240Z,-3.87
2018-03-02T06:13:51.459Z,-3.85
2018-03-02T06:16:54.731Z,-3.83
2018-03-02T06:19:57.986Z,-3.87
2018-03-02T06:23:01.290Z,-3.85
2018-03-02T06:26:04.598Z,-3.79
2018-03-02T06:29:07.874Z,-3.90
2018-03-02T06:32:11.179Z,-3.96
2018-03-02T06:35:14.470Z,-3.85
2018-03-02T06:38:17.746Z,-3.87
2018-03-02T06:41:21.015Z,-3.89
2018-03-02T06:44:24.222Z,-3.92
2018-03-02T06:47:27.522Z,-3.86
2018-03-02T06:50:30.699Z,-3.77
2018-03-02T06:53:33.950Z,-3.76
2018-03-02T06:56:37.134Z,-3.82
2018-03-02T06:59:40.359Z,-3.74
2018-03-02T07:02:44.362Z,-3.68
2018-03-02T07:05:47.833Z,-3.73
2018-03-02T07:08:51.151Z,-3.62
2018-03-02T07:11:54.378Z,-3.64
2018-03-02T07:14:57.550Z,-3.61
2018-03-02T07:18:00.886Z,-3.58
2018-03-02T07:21:04.232Z,-3.62
2018-03-02T07:24:07.450Z,-3.58
2018-03-02T07:27:10.627Z,-3.50
2018-03-02T07:30:14.727Z,-3.45
2018-03-02T07:33:17.956Z,-3.45
2018-03-02T07:36:21.218Z,-3.46
2018-03-02T07:39:24.437Z,-3.42
2018-03-02T07:42:27.622Z,-3.41
2018-03-02T07:45:30.797Z,-3.36
2018-03-02T07:48:34.563Z,-3.38
2018-03-02T07:51:37.787Z,-3.29
2018-03-02T07:54:41.004Z,-3.23
2018-03-02T07:57:44.718Z,-3.21
2018-03-02T08:00:48.000Z,-3.17
2018-03-02T08:03:51.158Z,-3.20
2018-03-02T08:06:54.408Z,-3.17
2018-03-02T08:09:57.586Z,-3.07
2018-03-02T08:13:00.836Z,-3.12
2018-03-02T08:16:04.088Z,-3.24
2018-03-02T08:19:07.238Z,-3.18
2018-03-02T08:22:10.441Z,-3.18
2018-03-02T08:25:14.871Z,-3.15
2018-03-02T08:28:18.062Z,-3.03
2018-03-02T08:31:21.335Z,-2.97
2018-03-02T08:34:24.534Z,-2.79
2018-03-02T08:37:27.812Z,-2.65
2018-03-02T08:40:30.995Z,-2.63
2018-03-02T08:43:34.190Z,-2.68
2018-03-02T08:46:37.362Z,-2.65
2018-03-02T08:49:41.009Z,-2.65
2018-03-02T08:52:44.260Z,-2.65
2018-03-02T08:55:47.632Z,-2.56
2018-03-02T08:58:50.792Z,-2.47
2018-03-02T09:01:54.013Z,-2.41
2018-03-02T09:04:57.185Z,-2.35
2018-03-02T09:08:00.374Z,-2.38
2018-03-02T09:11:03.661Z,-2.45
2018-03-02T09:14:06.874Z,-2.37
2018-03-02T09:17:10.072Z,-2.36
2018-03-02T09:20:14.239Z,-2.25
2018-03-02T09:23:17.404Z,-2.25
2018-03-02T09:26:20.577Z,-2.16
2018-03-02T09:29:23.787Z,-2.23
2018-03-02T09:32:26.969Z,-2.24
2018-03-02T09:35:30.156Z,-2.08
2018-03-02T09:38:33.331Z,-1.95
2018-03-02T09:41:36.550Z,-1.90
2018-03-02T09:44:39.719Z,-2.03
2018-03-02T09:47:43.553Z,-1.93
2018-03-02T09:50:46.733Z,-1.93
2018-03-02T09:53:49.927Z,-1.79
2018-03-02T09:56:53.105Z,-1.79
2018-03-02T09:59:56.370Z,-1.91
2018-03-02T10:02:59.525Z,-1.99
2018-03-02T10:06:02.724Z,-1.89
2018-03-02T10:09:05.919Z,-1.36
2018-03-02T10:12:09.106Z,-0.91
2018-03-02T10:15:12.294Z,-0.70
2018-03-02T10:18:16.192Z,-0.87
2018-03-02T10:21:19.603Z,-0.75
2018-03-02T10:24:22.906Z,-0.79
2018-03-02T10:27:26.060Z,-0.78
2018-03-02T10:30:29.298Z,-0.87
2018-03-02T10:33:32.564Z,-0.59
2018-03-02T10:36:35.786Z,-0.46
2018-03-02T10:39:38.970Z,-0.39
2018-03-02T10:42:42.178Z,-0.30
2018-03-02T10:45:46.185Z,-0.50
2018-03-02T10:48:49.342Z,-0.53
2018-03-02T10:51:52.578Z,-0.67
2018-03-02T10:54:55.748Z,-0.52
2018-03-02T10:57:58.985Z,-0.54
2018-03-02T11:01:06.333Z,-0.43
2018-03-02T11:04:10.450Z,-0.64
2018-03-02T11:07:14.157Z,-0.69
2018-03-02T11:10:17.297Z,-0.66
2018-03-02T11:13:20.479Z,-0.56
2018-03-02T11:16:23.676Z,-0.32
2018-03-02T11:19:26.878Z,-0.19
2018-03-02T11:22:30.059Z,-0.10
2018-03-02T11:25:33.282Z,-0.11
2018-03-02T11:28:36.478Z,0.10
2018-03-02T11:31:39.636Z,0.15
2018-03-02T11:34:42.774Z,0.18
2018-03-02T11:37:47.105Z,0.17
2018-03-02T11:40:50.272Z,0.25
2018-03-02T11:43:53.420Z,0.41
2018-03-02T11:46:56.656Z,0.39
2018-03-02T11:49:59.746Z,0.50
2018-03-02T11:53:02.946Z,0.40
2018-03-02T11:56:06.655Z,0.62
2018-03-02T11:59:09.870Z,0.63
2018-03-02T12:02:13.002Z,0.76
2018-03-02T12:05:17.153Z,0.74
2018-03-02T12:08:20.313Z,0.73
2018-03-02T12:11:23.466Z,0.86
2018-03-02T12:14:26.680Z,0.80
2018-03-02T12:17:30.046Z,0.72
2018-03-02T12:20:33.208Z,0.95
2018-03-02T12:23:36.515Z,1.00
2018-03-02T12:26:39.610Z,1.03
2018-03-02T12:29:42.860Z,1.07
2018-03-02T12:32:46.580Z,1.11
2018-03-02T12:35:49.730Z,1.22
2018-03-02T12:38:52.900Z,1.21
2018-03-02T12:41:56.126Z,1.26
2018-03-02T12:44:59.903Z,1.14
2018-03-02T12:48:03.134Z,1.21
2018-03-02T12:51:06.322Z,1.18
2018-03-02T12:54:09.520Z,1.28
2018-03-02T12:57:12.793Z,1.40
2018-03-02T13:00:16.634Z,1.31
2018-03-02T13:03:19.769Z,1.31
2018-03-02T13:06:22.932Z,1.38
2018-03-02T13:09:26.147Z,1.39
2018-03-02T13:12:29.304Z,1.32
2018-03-02T13:15:32.447Z,1.14
2018-03-02T13:18:43.119Z,1.10
2018-03-02T13:21:47.514Z,1.16
2018-03-02T13:24:50.710Z,1.19
2018-03-02T13:28:05.340Z,1.21
2018-03-02T13:31:08.597Z,1.30
2018-03-02T13:35:15.810Z,1.18
2018-03-02T13:38:19.081Z,1.25
2018-03-02T13:41:33.666Z,1.30
2018-03-02T13:44:36.837Z,1.21
2018-03-02T13:47:46.665Z,1.34
2018-03-02T13:50:49.814Z,1.42
2018-03-02T13:53:53.001Z,1.28
2018-03-02T13:58:03.120Z,1.39
2018-03-02T14:01:06.345Z,1.38
2018-03-02T14:05:13.850Z,1.41
2018-03-02T14:08:17.978Z,1.46
2018-03-02T14:11:21.167Z,1.51
2018-03-02T14:14:24.437Z,1.51
2018-03-02T14:17:27.648Z,1.55
2018-03-02T14:20:30.852Z,1.58
2018-03-02T14:23:34.047Z,1.55
2018-03-02T14:26:37.244Z,1.47
2018-03-02T14:29:40.462Z,1.47
2018-03-02T14:32:43.616Z,1.58
2018-03-02T14:35:47.927Z,1.61
2018-03-02T14:38:51.161Z,1.68
2018-03-02T14:41:54.325Z,1.73
2018-03-02T14:44:57.574Z,1.69
2018-03-02T14:48:00.782Z,1.65
2018-03-02T14:51:04.096Z,1.66
2018-03-02T14:54:07.360Z,1.69
2018-03-02T14:57:10.627Z,1.64
2018-03-02T15:00:13.835Z,1.58
2018-03-02T15:03:18.010Z,1.49
2018-03-02T15:06:21.163Z,1.50
2018-03-02T15:09:24.346Z,1.31
2018-03-02T15:12:27.495Z,1.35
2018-03-02T15:15:30.649Z,1.37
2018-03-02T15:18:34.345Z,1.41
2018-03-02T15:21:37.697Z,1.45
2018-03-02T15:24:40.962Z,1.36
2018-03-02T15:27:44.150Z,1.37
2018-03-02T15:30:49.278Z,1.44
2018-03-02T15:33:52.449Z,1.31
2018-03-02T15:36:55.678Z,1.33
2018-03-02T15:39:58.944Z,1.35
2018-03-02T15:43:02.654Z,1.37
2018-03-02T15:46:05.812Z,1.35
2018-03-02T15:49:09.070Z,1.26
2018-03-02T15:52:12.291Z,1.21
2018-03-02T15:55:16.058Z,1.22
2018-03-02T15:58:19.317Z,1.18
2018-03-02T16:01:22.555Z,1.17
2018-03-02T16:04:25.929Z,1.09
2018-03-02T16:07:29.126Z,1.04
2018-03-02T16:10:32.349Z,1.01
2018-03-02T16:13:35.654Z,1.06
2018-03-02T16:16:38.976Z,0.87
2018-03-02T16:19:42.259Z,0.87
2018-03-02T16:22:47.006Z,0.71
2018-03-02T16:25:50.225Z,0.72
2018-03-02T16:28:53.428Z,0.65
2018-03-02T16:31:56.676Z,0.61
2018-03-02T16:34:59.977Z,0.54
2018-03-02T16:38:03.204Z,0.49
2018-03-02T16:41:06.962Z,0.44
2018-03-02T16:44:10.295Z,0.46
2018-03-02T16:47:14.344Z,0.43
2018-03-02T16:50:17.485Z,0.37
2018-03-02T16:53:20.826Z,0.32
2018-03-02T16:56:24.114Z,0.10
2018-03-02T16:59:27.383Z,-0.06
2018-03-02T17:02:30.636Z,-0.22
2018-03-02T17:05:34.043Z,-0.29
2018-03-02T17:08:37.165Z,-0.34
2018-03-02T17:11:40.446Z,-0.36
2018-03-02T17:14:44.554Z,-0.30
2018-03-02T17:17:47.882Z,-0.30
2018-03-02T17:20:51.187Z,-0.36
2018-03-02T17:23:55.509Z,-0.35
2018-03-02T17:26:58.737Z,-0.38
2018-03-02T17:30:01.988Z,-0.30
2018-03-02T17:33:05.170Z,-0.27
2018-03-02T17:36:08.343Z,-0.31
2018-03-02T17:39:11.535Z,-0.34
2018-03-02T17:42:15.637Z,-0.29
2018-03-02T17:45:18.931Z,-0.25
2018-03-02T17:48:22.117Z,-0.25
2018-03-02T17:51:25.453Z,-0.16
2018-03-02T17:54:28.662Z,-0.24
2018-03-02T17:57:31.947Z,-0.28
2018-03-02T18:00:35.584Z,-0.29
2018-03-02T18:03:38.750Z,-0.26
2018-03-02T18:06:43.053Z,-0.40
2018-03-02T18:09:46.879Z,-0.28
2018-03-02T18:12:50.096Z,-0.31
2018-03-02T18:15:53.336Z,-0.33
2018-03-02T18:18:56.592Z,-0.26
2018-03-02T18:21:59.771Z,-0.21
2018-03-02T18:25:02.977Z,-0.19
2018-03-02T18:28:06.159Z,-0.13
2018-03-02T18:31:09.492Z,-0.20
2018-03-02T18:34:12.673Z,-0.24
2018-03-02T18:37:15.858Z,-0.34
2018-03-02T18:40:19.054Z,-0.26
2018-03-02T18:43:22.267Z,-0.16
2018-03-02T18:46:25.462Z,-0.05
2018-03-02T18:49:28.663Z,-0.02
2018-03-02T18:52:31.833Z,-0.15
2018-03-02T18:55:35.106Z,-0.11
2018-03-02T18:58:38.242Z,-0.34
2018-03-02T19:01:41.554Z,-0.30
2018-03-02T19:04:44.854Z,-0.30
2018-03-02T19:07:48.126Z,-0.18
2018-03-02T19:10:51.321Z,-0.15
2018-03-02T19:13:54.532Z,-0.10
2018-03-02T19:16:57.827Z,-0.17
2018-03-02T19:20:01.063Z,-0.13
2018-03-02T19:23:04.244Z,-0.15
2018-03-02T19:26:07.458Z,-0.27
2018-03-02T19:29:11.538Z,-0.29
2018-03-02T19:32:14.826Z,-0.29
2018-03-02T19:35:17.981Z,-0.21
2018-03-02T19:38:21.138Z,-0.19
2018-03-02T19:41:24.362Z,-0.22
2018-03-02T19:44:27.614Z,-0.31
2018-03-02T19:47:30.781Z,-0.40
2018-03-02T19:50:33.961Z,-0.35
2018-03-02T19:53:37.132Z,-0.38
2018-03-02T19:56:40.453Z,-0.29
2018-03-02T19:59:44.726Z,-0.32
2018-03-02T20:02:47.956Z,-0.44
2018-03-02T20:05:51.344Z,-0.42
2018-03-02T20:08:54.653Z,-0.33
2018-03-02T20:11:57.939Z,-0.24
2018-03-02T20:15:01.633Z,-0.35
2018-03-02T20:18:05.043Z,-0.41
2018-03-02T20:21:09.442Z,-0.43
2018-03-02T20:24:12.857Z,-0.43
2018-03-02T20:27:16.793Z,-0.51
2018-03-02T20:30:20.094Z,-0.45
2018-03-02T20:33:23.642Z,-0.42
2018-03-02T20:36:26.883Z,-0.45
2018-03-02T20:39:30.234Z,-0.50
2018-03-02T20:42:33.904Z,-0.52
2018-03-02T20:45:37.135Z,-0.51
2018-03-02T20:48:40.434Z,-0.55
2018-03-02T20:51:43.880Z,-0.64
2018-03-02T20:54:47.234Z,-0.69
2018-03-02T20:57:50.558Z,-0.60
2018-03-02T21:00:53.935Z,-0.58
2018-03-02T21:03:57.187Z,-0.62
2018-03-02T21:07:00.629Z,-0.66
2018-03-02T21:10:04.002Z,-0.62
2018-03-02T21:13:07.438Z,-0.61
2018-03-02T21:16:12.480Z,-0.61
2018-03-02T21:19:15.809Z,-0.65
2018-03-02T21:22:19.426Z,-0.67
2018-03-02T21:25:22.655Z,-0.65
2018-03-02T21:28:25.842Z,-0.57
2018-03-02T21:31:29.565Z,-0.51
2018-03-02T21:34:32.890Z,-0.58
2018-03-02T21:37:35.998Z,-0.60
2018-03-02T21:40:39.193Z,-0.60
2018-03-02T21:43:42.438Z,-0.63
2018-03-02T21:46:45.687Z,-0.61
2018-03-02T21:49:48.879Z,-0.71
2018-03-02T21:52:52.082Z,-0.69
2018-03-02T21:55:55.283Z,-0.65
2018-03-02T21:58:58.490Z,-0.60
2018-03-02T22:02:01.826Z,-0.54
2018-03-02T22:05:05.004Z,-0.61
2018-03-02T22:08:08.175Z,-0.65
2018-03-02T22:11:11.355Z,-0.64
2018-03-02T22:14:15.306Z,-0.54
2018-03-02T22:17:18.455Z,-0.57
2018-03-02T22:20:21.651Z,-0.63
2018-03-02T22:23:24.851Z,-0.70
2018-03-02T22:26:28.033Z,-0.65
2018-03-02T22:29:31.253Z,-0.62
2018-03-02T22:32:34.454Z,-0.64
2018-03-02T22:35:37.614Z,-0.67
2018-03-02T22:38:40.838Z,-0.65
2018-03-02T22:41:44.005Z,-0.69
2018-03-02T22:44:47.283Z,-0.66
2018-03-02T22:47:50.554Z,-0.60
2018-03-02T22:50:53.708Z,-0.62
2018-03-02T22:53:56.933Z,-0.64
2018-03-02T22:57:00.140Z,-0.67
2018-03-02T23:00:03.351Z,-0.63
2018-03-02T23:03:06.526Z,-0.58
2018-03-02T23:06:09.715Z,-0.56
2018-03-02T23:09:12.977Z,-0.52
2018-03-02T23:12:16.207Z,-0.52
2018-03-02T23:15:20.324Z,-0.50
2018-03-02T23:18:23.478Z,-0.49
2018-03-02T23:21:26.642Z,-0.49
2018-03-02T23:24:29.835Z,-0.46
2018-03-02T23:27:33.005Z,-0.49
2018-03-02T23:30:36.201Z,-0.46
2018-03-02T23:33:45.759Z,-0.46
2018-03-02T23:36:51.412Z,-0.47
2018-03-02T23:39:54.586Z,-0.46
2018-03-02T23:42:57.823Z,-0.47
2018-03-02T23:46:00.999Z,-0.48
2018-03-02T23:49:04.145Z,-0.49
2018-03-02T23:52:07.411Z,-0.53
2018-03-02T23:55:10.587Z,-0.48
2018-03-02T23:58:13.816Z,-0.51
